Time;durP1;ratioP1;P1;durP2;ratioP2;P2;SDS_P1;SDS_P2;PMS_P1;PMS_P2;Temp;Humidity;BMP_temperature;BMP_pressure;BME280_temperature;BME280_humidity;BME280_pressure;Samples;Min_cycle;Max_cycle;Signal;HPM_P1;HPM_P2
2022/08/17 00:01:42;;;;;;;;;;;589.40;2432.00;;;;;;5072507;28;20325;-55
2022/08/17 00:04:07;;;;;;;;;;;589.40;2432.00;;;;;;5072496;28;19913;-67
2022/08/17 00:06:34;;;;;;;;;;;589.30;2432.00;;;;;;5072669;28;19954;-57
2022/08/17 00:09:02;;;;;;;;;;;589.60;2432.00;;;;;;5072658;28;19908;-67
2022/08/17 00:11:35;;;;;;;;;;;589.20;2432.00;;;;;;5072440;28;19916;-55
2022/08/17 00:14:04;;;;;;;;;;;589.10;2432.00;;;;;;5072560;28;19908;-55
2022/08/17 00:16:37;;;;;;;;;;;589.10;2432.00;;;;;;5072451;28;19916;-66
2022/08/17 00:19:05;;;;;;;;;;;589.10;2432.00;;;;;;5072475;28;19917;-58
2022/08/17 00:21:31;;;;;;;;;;;589.10;2432.00;;;;;;5071644;28;19953;-58
2022/08/17 00:23:58;;;;;;;;;;;589.10;2432.00;;;;;;5072252;28;19916;-57
2022/08/17 00:26:27;;;;;;;;;;;589.10;2432.00;;;;;;5072361;28;19908;-54
2022/08/17 00:28:53;;;;;;;;;;;589.10;2432.00;;;;;;5072210;28;19908;-67
2022/08/17 00:31:19;;;;;;;;;;;589.10;2432.00;;;;;;5070631;28;19920;-67
2022/08/17 00:33:44;;;;;;;;;;;589.10;2432.00;;;;;;5072047;28;19913;-66
2022/08/17 00:36:12;;;;;;;;;;;589.00;2432.00;;;;;;5072066;28;20432;-62
2022/08/17 00:38:38;;;;;;;;;;;589.00;2432.00;;;;;;5071877;28;19908;-54
2022/08/17 00:41:05;;;;;;;;;;;589.00;2432.00;;;;;;5072122;28;19920;-58
2022/08/17 00:43:39;;;;;;;;;;;589.10;2432.00;;;;;;5071823;28;19915;-66
2022/08/17 00:46:12;;;;;;;;;;;588.90;2432.00;;;;;;5070799;28;19931;-58
2022/08/17 00:48:38;;;;;;;;;;;588.90;2432.00;;;;;;5071906;28;20007;-57
2022/08/17 00:51:07;;;;;;;;;;;588.90;2432.00;;;;;;5072082;28;20012;-57
2022/08/17 00:53:33;;;;;;;;;;;588.80;2432.00;;;;;;5071726;28;20370;-67
2022/08/17 00:56:00;;;;;;;;;;;588.80;2432.00;;;;;;5071713;28;19926;-57
2022/08/17 00:58:26;;;;;;;;;;;564.10;2432.00;;;;;;5071640;28;19913;-68
2022/08/17 01:00:52;;;;;;;;;;;564.10;2432.00;;;;;;5071296;28;20286;-58
2022/08/17 01:03:23;;;;;;;;;;;564.10;2432.00;;;;;;5071260;28;19956;-57
2022/08/17 01:05:50;;;;;;;;;;;564.10;2432.00;;;;;;5071507;28;19954;-58
2022/08/17 01:08:18;;;;;;;;;;;564.10;2432.00;;;;;;5071519;28;19909;-57
2022/08/17 01:10:47;;;;;;;;;;;564.10;2432.00;;;;;;5071340;28;19915;-56
2022/08/17 01:13:13;;;;;;;;;;;564.10;2432.00;;;;;;5071311;28;19913;-62
2022/08/17 01:15:41;;;;;;;;;;;564.10;2432.00;;;;;;5071240;28;19917;-70
2022/08/17 01:18:09;;;;;;;;;;;564.10;2432.00;;;;;;5071085;28;19908;-67
2022/08/17 01:20:36;;;;;;;;;;;564.10;2432.00;;;;;;5071016;28;20011;-57
2022/08/17 01:23:02;;;;;;;;;;;564.10;2432.00;;;;;;5071267;28;19916;-57
2022/08/17 01:25:28;;;;;;;;;;;564.00;2432.00;;;;;;5071099;28;19909;-55
2022/08/17 01:27:54;;;;;;;;;;;564.00;2432.00;;;;;;5071037;28;19938;-57
2022/08/17 01:30:20;;;;;;;;;;;564.00;2432.00;;;;;;5070923;28;20007;-58
2022/08/17 01:32:46;;;;;;;;;;;563.90;2432.00;;;;;;5070951;28;20393;-56
2022/08/17 01:35:12;;;;;;;;;;;563.90;2432.00;;;;;;5071210;28;19912;-71
2022/08/17 01:37:40;;;;;;;;;;;563.80;2432.00;;;;;;5070929;28;19913;-70
2022/08/17 01:40:11;;;;;;;;;;;563.80;2432.00;;;;;;5070901;28;19915;-69
2022/08/17 01:42:57;;;;;;;;;;;563.80;2432.00;;;;;;5070939;28;19909;-54
2022/08/17 01:45:25;;;;;;;;;;;563.80;2432.00;;;;;;5071347;28;19999;-64
2022/08/17 01:47:52;;;;;;;;;;;563.60;2432.00;;;;;;5071071;28;19974;-69
2022/08/17 01:50:26;;;;;;;;;;;563.70;2432.00;;;;;;5070943;28;19909;-68
2022/08/17 01:52:55;;;;;;;;;;;563.70;2432.00;;;;;;5071002;28;19909;-68
2022/08/17 01:55:25;;;;;;;;;;;563.60;2432.00;;;;;;5070953;28;19959;-69
2022/08/17 01:57:50;;;;;;;;;;;563.60;2432.00;;;;;;5070680;28;19917;-55
2022/08/17 02:00:17;;;;;;;;;;;563.60;2432.00;;;;;;5070467;28;19912;-58
2022/08/17 02:02:44;;;;;;;;;;;563.60;2432.00;;;;;;5070929;28;19924;-69
2022/08/17 02:05:11;;;;;;;;;;;563.60;2432.00;;;;;;5071009;28;19987;-69
2022/08/17 02:07:36;;;;;;;;;;;563.60;2432.00;;;;;;5070671;28;19908;-68
2022/08/17 02:10:04;;;;;;;;;;;563.60;2432.00;;;;;;5070751;28;20354;-55
2022/08/17 02:12:30;;;;;;;;;;;563.50;2432.00;;;;;;5070835;28;19999;-68
2022/08/17 02:14:55;;;;;;;;;;;563.40;2432.00;;;;;;5070274;28;19997;-68
2022/08/17 02:17:21;;;;;;;;;;;563.30;2432.00;;;;;;5070861;28;19913;-55
2022/08/17 02:19:46;;;;;;;;;;;563.20;2432.00;;;;;;5070570;28;19916;-55
2022/08/17 02:22:12;;;;;;;;;;;563.20;2432.00;;;;;;5070601;28;19951;-55
2022/08/17 02:24:38;;;;;;;;;;;563.20;2432.00;;;;;;5070503;28;19913;-66
2022/08/17 02:27:04;;;;;;;;;;;538.50;2406.40;;;;;;5070796;28;20398;-66
2022/08/17 02:29:30;;;;;;;;;;;538.50;2406.40;;;;;;5070673;28;19919;-68
2022/08/17 02:31:57;;;;;;;;;;;538.40;2406.40;;;;;;5070443;28;20016;-56
2022/08/17 02:34:23;;;;;;;;;;;538.40;2406.40;;;;;;5070611;28;19912;-68
2022/08/17 02:36:49;;;;;;;;;;;538.40;2406.40;;;;;;5070349;28;19917;-69
2022/08/17 02:39:14;;;;;;;;;;;538.40;2406.40;;;;;;5070485;28;19996;-56
2022/08/17 02:41:40;;;;;;;;;;;538.40;2406.40;;;;;;5070818;28;20354;-69
2022/08/17 02:44:06;;;;;;;;;;;538.40;2406.40;;;;;;5070579;28;19909;-70
2022/08/17 02:46:32;;;;;;;;;;;538.30;2406.40;;;;;;5073495;28;20395;-70
2022/08/17 02:48:57;;;;;;;;;;;538.20;2406.40;;;;;;5073819;28;19999;-56
2022/08/17 02:51:23;;;;;;;;;;;538.20;2406.40;;;;;;5074102;28;20050;-59
2022/08/17 02:53:49;;;;;;;;;;;538.20;2406.40;;;;;;5074159;28;19908;-54
2022/08/17 02:56:15;;;;;;;;;;;538.20;2406.40;;;;;;5073925;28;19917;-55
2022/08/17 02:58:40;;;;;;;;;;;538.10;2406.40;;;;;;5072645;28;20440;-57
2022/08/17 03:01:07;;;;;;;;;;;538.10;2406.40;;;;;;5073397;28;20074;-69
2022/08/17 03:03:33;;;;;;;;;;;538.10;2406.40;;;;;;5074147;28;19919;-56
2022/08/17 03:05:58;;;;;;;;;;;538.10;2406.40;;;;;;5073664;28;20278;-55
2022/08/17 03:08:24;;;;;;;;;;;538.00;2406.40;;;;;;5073946;28;19909;-56
2022/08/17 03:10:49;;;;;;;;;;;538.00;2406.40;;;;;;5073755;28;19970;-68
2022/08/17 03:13:15;;;;;;;;;;;538.00;2406.40;;;;;;5073551;28;19908;-56
2022/08/17 03:15:43;;;;;;;;;;;538.00;2406.40;;;;;;5073522;28;19943;-70
2022/08/17 03:18:10;;;;;;;;;;;538.00;2406.40;;;;;;5073447;28;19943;-61
2022/08/17 03:20:36;;;;;;;;;;;538.00;2406.40;;;;;;5073548;28;20286;-68
2022/08/17 03:23:02;;;;;;;;;;;538.00;2406.40;;;;;;5073622;28;19999;-66
2022/08/17 03:25:30;;;;;;;;;;;538.00;2406.40;;;;;;5073475;28;19909;-56
2022/08/17 03:27:55;;;;;;;;;;;537.90;2406.40;;;;;;5073350;28;19931;-56
2022/08/17 03:30:21;;;;;;;;;;;537.90;2406.40;;;;;;5073409;28;20362;-56
2022/08/17 03:32:49;;;;;;;;;;;537.90;2406.40;;;;;;5073415;28;19965;-66
2022/08/17 03:35:15;;;;;;;;;;;537.80;2406.40;;;;;;5073335;28;19934;-68
2022/08/17 03:37:41;;;;;;;;;;;537.80;2406.40;;;;;;5073465;28;19913;-69
2022/08/17 03:40:07;;;;;;;;;;;537.80;2406.40;;;;;;5072959;28;20373;-56
2022/08/17 03:42:33;;;;;;;;;;;537.80;2406.40;;;;;;5073130;28;19931;-63
2022/08/17 03:44:59;;;;;;;;;;;537.70;2406.40;;;;;;5072954;28;19999;-56
2022/08/17 03:58:22;;;;;;;;;;;537.80;2406.40;;;;;;5072870;28;19962;-56
2022/08/17 04:00:48;;;;;;;;;;;537.90;2406.40;;;;;;5072431;28;19947;-56
2022/08/17 04:03:14;;;;;;;;;;;537.90;2406.40;;;;;;5072926;28;19913;-66
2022/08/17 04:05:39;;;;;;;;;;;538.00;2406.40;;;;;;5072877;28;19915;-66
2022/08/17 04:08:06;;;;;;;;;;;538.00;2406.40;;;;;;5072578;28;19908;-56
2022/08/17 04:10:32;;;;;;;;;;;538.10;2406.40;;;;;;5072648;28;19948;-68
2022/08/17 04:12:57;;;;;;;;;;;538.10;2406.40;;;;;;5072404;28;19962;-56
2022/08/17 04:15:23;;;;;;;;;;;538.10;2406.40;;;;;;5072468;28;19924;-67
2022/08/17 04:17:49;;;;;;;;;;;538.20;2406.40;;;;;;5072329;28;20363;-68
2022/08/17 04:20:16;;;;;;;;;;;538.30;2406.40;;;;;;5072100;28;19908;-56
2022/08/17 04:22:57;;;;;;;;;;;538.40;2406.40;;;;;;5072467;28;19943;-68
2022/08/17 04:25:22;;;;;;;;;;;563.20;2432.00;;;;;;5072492;28;20267;-55
2022/08/17 04:27:48;;;;;;;;;;;563.30;2432.00;;;;;;5072234;28;19909;-68
2022/08/17 04:30:13;;;;;;;;;;;563.40;2432.00;;;;;;5072054;28;19920;-68
2022/08/17 04:32:51;;;;;;;;;;;563.40;2432.00;;;;;;5072136;28;19912;-66
2022/08/17 04:35:18;;;;;;;;;;;563.60;2432.00;;;;;;5071829;28;19965;-55
2022/08/17 04:37:44;;;;;;;;;;;563.70;2432.00;;;;;;5071954;28;20349;-58
2022/08/17 04:43:01;;;;;;;;;;;563.90;2432.00;;;;;;5072380;28;19915;-57
2022/08/17 04:45:27;;;;;;;;;;;564.10;2432.00;;;;;;5071400;28;19962;-67
2022/08/17 04:47:52;;;;;;;;;;;564.00;2432.00;;;;;;5071945;28;19936;-56
2022/08/17 04:50:18;;;;;;;;;;;564.00;2432.00;;;;;;5071785;28;19909;-67
2022/08/17 04:52:44;;;;;;;;;;;614.50;2432.00;;;;;;5071613;28;19999;-57
2022/08/17 04:55:10;;;;;;;;;;;640.40;2432.00;;;;;;5071795;28;19916;-64
2022/08/17 04:57:35;;;;;;;;;;;665.90;2380.80;;;;;;5071499;28;19917;-56
2022/08/17 05:00:03;;;;;;;;;;;666.20;2304.00;;;;;;5071536;28;20271;-56
2022/08/17 05:02:28;;;;;;;;;;;691.50;2201.60;;;;;;5071161;28;19925;-57
2022/08/17 05:04:54;;;;;;;;;;;716.90;2124.80;;;;;;5071439;28;19909;-56
2022/08/17 05:07:20;;;;;;;;;;;717.70;1996.80;;;;;;5071292;28;19908;-68
2022/08/17 05:09:45;;;;;;;;;;;768.00;1920.00;;;;;;5071308;28;19913;-68
2022/08/17 05:12:11;;;;;;;;;;;819.30;1740.80;;;;;;5071536;28;20286;-68
2022/08/17 05:14:37;;;;;;;;;;;845.30;1612.80;;;;;;5071203;28;19908;-68
2022/08/17 05:17:03;;;;;;;;;;;870.40;1561.60;;;;;;5071211;28;19920;-58
2022/08/17 05:19:29;;;;;;;;;;;870.90;1510.40;;;;;;5071256;28;19908;-67
2022/08/17 05:21:54;;;;;;;;;;;921.60;1408.00;;;;;;5071093;28;19916;-63
2022/08/17 05:24:20;;;;;;;;;;;922.50;1331.20;;;;;;5071518;28;19912;-57
2022/08/17 05:26:46;;;;;;;;;;;948.00;1254.40;;;;;;5070992;28;20382;-57
2022/08/17 05:29:12;;;;;;;;;;;973.10;1254.40;;;;;;5071364;28;19951;-56
2022/08/17 05:31:37;;;;;;;;;;;998.40;1228.80;;;;;;5070990;28;20424;-56
2022/08/17 05:34:03;;;;;;;;;;;998.90;1228.80;;;;;;5071283;28;20382;-56
2022/08/17 05:36:28;;;;;;;;;;;999.30;1177.60;;;;;;5071093;28;19924;-69
2022/08/17 05:38:54;;;;;;;;;;;1024.60;1126.40;;;;;;5070997;28;19914;-57
2022/08/17 05:41:19;;;;;;;;;;;1049.60;1152.00;;;;;;5071426;28;19995;-58
2022/08/17 05:43:45;;;;;;;;;;;1049.70;1126.40;;;;;;5071134;28;20373;-57
2022/08/17 05:46:27;;;;;;;;;;;1050.30;1100.80;;;;;;5071166;28;19908;-57
2022/08/17 05:48:57;;;;;;;;;;;1075.30;1100.80;;;;;;5071099;28;20282;-69
2022/08/17 05:51:29;;;;;;;;;;;1075.50;1049.60;;;;;;5071282;28;19973;-67
2022/08/17 05:54:10;;;;;;;;;;;1100.80;1075.20;;;;;;5071075;28;19916;-58
2022/08/17 05:56:41;;;;;;;;;;;1101.00;1075.20;;;;;;5070810;28;19917;-57
2022/08/17 05:59:16;;;;;;;;;;;1101.20;1049.60;;;;;;5070761;28;19931;-69
2022/08/17 06:01:46;;;;;;;;;;;1101.20;1049.60;;;;;;5070583;28;20069;-57
2022/08/17 06:04:21;;;;;;;;;;;1101.50;1049.60;;;;;;5071178;28;19970;-71
2022/08/17 06:06:51;;;;;;;;;;;1126.40;1049.60;;;;;;5070637;28;20354;-69
2022/08/17 06:09:37;;;;;;;;;;;1126.70;1024.00;;;;;;5070705;28;19931;-68
2022/08/17 06:12:19;;;;;;;;;;;1101.70;998.40;;;;;;5069718;28;20313;-58
2022/08/17 06:14:50;;;;;;;;;;;1100.80;1075.20;;;;;;5069628;28;20252;-57
2022/08/17 06:17:20;;;;;;;;;;;1075.20;1100.80;;;;;;5070422;28;20381;-57
2022/08/17 06:19:49;;;;;;;;;;;1050.40;1100.80;;;;;;5070873;28;20377;-72
2022/08/17 06:22:17;;;;;;;;;;;1101.00;1049.60;;;;;;5074326;28;19909;-66
2022/08/17 06:24:46;;;;;;;;;;;1126.70;1024.00;;;;;;5074894;28;19909;-75
2022/08/17 06:27:20;;;;;;;;;;;1152.70;972.80;;;;;;5074651;28;20379;-71
2022/08/17 06:30:09;;;;;;;;;;;1178.10;947.20;;;;;;5074326;28;19909;-70
2022/08/17 06:32:37;;;;;;;;;;;1178.50;921.60;;;;;;5074143;28;19915;-59
2022/08/17 06:35:04;;;;;;;;;;;1203.60;921.60;;;;;;5074623;28;19960;-70
2022/08/17 06:37:37;;;;;;;;;;;1203.80;921.60;;;;;;5074617;28;19940;-70
2022/08/17 06:40:24;;;;;;;;;;;1203.40;921.60;;;;;;5074455;28;19952;-64
2022/08/17 06:43:10;;;;;;;;;;;1178.00;947.20;;;;;;5074652;28;19931;-68
2022/08/17 06:45:48;;;;;;;;;;;1203.60;947.20;;;;;;5074087;28;19908;-57
2022/08/17 06:48:23;;;;;;;;;;;1203.70;896.00;;;;;;5074370;28;19912;-62
2022/08/17 06:50:53;;;;;;;;;;;1228.90;921.60;;;;;;5074204;28;20008;-57
2022/08/17 06:53:28;;;;;;;;;;;1203.60;921.60;;;;;;5074255;28;19908;-64
2022/08/17 06:55:53;;;;;;;;;;;1178.10;921.60;;;;;;5073702;28;19921;-71
2022/08/17 06:58:21;;;;;;;;;;;1178.10;947.20;;;;;;5075003;28;19917;-68
2022/08/17 07:00:47;;;;;;;;;;;1203.80;947.20;;;;;;5076735;28;20297;-57
2022/08/17 07:03:39;;;;;;;;;;;1203.90;921.60;;;;;;5070777;28;19936;-69
2022/08/17 07:06:10;;;;;;;;;;;1203.90;921.60;;;;;;5035188;28;20394;-63
2022/08/17 07:08:36;;;;;;;;;;;1254.40;921.60;;;;;;5039141;28;19916;-71
2022/08/17 07:11:05;;;;;;;;;;;1229.50;896.00;;;;;;5040098;28;19912;-70
2022/08/17 07:13:49;;;;;;;;;;;1255.00;896.00;;;;;;5031081;28;19913;-72
2022/08/17 07:16:20;;;;;;;;;;;1280.00;870.40;;;;;;5029733;28;19948;-70
2022/08/17 07:18:48;;;;;;;;;;;1280.50;870.40;;;;;;5029920;28;20260;-58
2022/08/17 07:21:20;;;;;;;;;;;1280.40;870.40;;;;;;5029899;28;20510;-59
2022/08/17 07:24:04;;;;;;;;;;;1280.20;870.40;;;;;;5027698;28;19920;-59
2022/08/17 07:26:30;;;;;;;;;;;1280.90;844.80;;;;;;5030060;28;19916;-72
2022/08/17 07:28:56;;;;;;;;;;;1305.70;844.80;;;;;;5029783;28;19913;-73
2022/08/17 07:31:23;;;;;;;;;;;1305.70;819.20;;;;;;5030514;28;19917;-71
2022/08/17 07:34:05;;;;;;;;;;;1280.90;844.80;;;;;;5039597;28;19912;-69
2022/08/17 07:36:32;;;;;;;;;;;1305.70;819.20;;;;;;5038264;28;19939;-73
2022/08/17 07:38:59;;;;;;;;;;;1280.90;819.20;;;;;;5041089;28;19936;-70
2022/08/17 07:41:25;;;;;;;;;;;1305.70;819.20;;;;;;5051104;28;19908;-58
2022/08/17 07:43:51;;;;;;;;;;;1306.30;793.60;;;;;;5089453;28;20370;-61
2022/08/17 07:49:08;;;;;;;;;;;1305.70;819.20;;;;;;5093581;28;20101;-69
2022/08/17 07:51:39;;;;;;;;;;;1306.00;793.60;;;;;;5093356;28;20037;-58
2022/08/17 07:54:05;;;;;;;;;;;1280.90;819.20;;;;;;5093188;28;19931;-58
2022/08/17 07:56:36;;;;;;;;;;;1280.40;844.80;;;;;;5093233;28;20359;-73
2022/08/17 07:59:25;;;;;;;;;;;1280.70;819.20;;;;;;5093225;28;19908;-58
2022/08/17 08:01:53;;;;;;;;;;;1280.20;844.80;;;;;;5050307;28;20386;-72
2022/08/17 08:04:28;;;;;;;;;;;1280.90;819.20;;;;;;5050711;28;19913;-73
2022/08/17 08:06:56;;;;;;;;;;;1280.90;819.20;;;;;;5050545;28;19916;-60
2022/08/17 08:09:29;;;;;;;;;;;1305.70;819.20;;;;;;5050617;28;19936;-58
2022/08/17 08:11:55;;;;;;;;;;;1306.20;793.60;;;;;;5050283;28;20370;-59
2022/08/17 08:14:23;;;;;;;;;;;1306.00;793.60;;;;;;5050509;28;19948;-73
2022/08/17 08:17:18;;;;;;;;;;;1306.00;793.60;;;;;;5050428;28;19916;-58
2022/08/17 08:19:44;;;;;;;;;;;1306.50;793.60;;;;;;4971600;28;19913;-58
2022/08/17 08:22:17;;;;;;;;;;;1305.90;793.60;;;;;;4971582;28;19933;-58
2022/08/17 08:25:06;;;;;;;;;;;1305.90;819.20;;;;;;4971707;28;19922;-73
2022/08/17 08:27:41;;;;;;;;;;;1306.00;793.60;;;;;;4961981;28;19918;-69
2022/08/17 08:30:09;;;;;;;;;;;1305.70;819.20;;;;;;4960369;28;20464;-59
2022/08/17 08:32:44;;;;;;;;;;;1280.70;819.20;;;;;;4971139;28;19921;-58
2022/08/17 08:35:21;;;;;;;;;;;1254.50;870.40;;;;;;4968514;28;19914;-72
2022/08/17 08:37:48;;;;;;;;;;;1203.40;870.40;;;;;;4940835;28;19918;-71
2022/08/17 08:40:26;;;;;;;;;;;1178.10;896.00;;;;;;4995662;28;19914;-59
2022/08/17 08:42:55;;;;;;;;;;;1126.90;947.20;;;;;;4997208;28;19941;-59
2022/08/17 08:45:30;;;;;;;;;;;1100.80;998.40;;;;;;4990548;28;19910;-72
2022/08/17 08:48:10;;;;;;;;;;;1050.20;1024.00;;;;;;4990291;28;19914;-59
2022/08/17 08:50:58;;;;;;;;;;;1024.60;1049.60;;;;;;4990262;28;20009;-57
2022/08/17 08:53:29;;;;;;;;;;;999.00;1100.80;;;;;;4990416;28;19996;-58
2022/08/17 08:56:01;;;;;;;;;;;973.70;1100.80;;;;;;5024485;28;20358;-69
2022/08/17 08:58:33;;;;;;;;;;;973.60;1152.00;;;;;;5071560;28;20385;-57
2022/08/17 09:01:01;;;;;;;;;;;973.40;1152.00;;;;;;5071453;28;20002;-57
2022/08/17 09:03:29;;;;;;;;;;;973.00;1177.60;;;;;;5071502;28;20050;-70
2022/08/17 09:06:06;;;;;;;;;;;972.90;1152.00;;;;;;5071390;28;19913;-60
2022/08/17 09:08:47;;;;;;;;;;;947.80;1177.60;;;;;;5071840;28;19908;-70
2022/08/17 09:11:17;;;;;;;;;;;947.80;1177.60;;;;;;5071611;28;19916;-60
2022/08/17 09:13:58;;;;;;;;;;;947.70;1203.20;;;;;;5071492;28;19919;-70
2022/08/17 09:16:28;;;;;;;;;;;947.70;1203.20;;;;;;5071451;28;19912;-69
2022/08/17 09:19:01;;;;;;;;;;;922.40;1203.20;;;;;;5071415;28;20053;-58
2022/08/17 09:21:45;;;;;;;;;;;922.40;1228.80;;;;;;5071263;28;19912;-64
2022/08/17 09:24:23;;;;;;;;;;;922.40;1228.80;;;;;;5071270;28;20045;-57
2022/08/17 09:26:57;;;;;;;;;;;922.40;1177.60;;;;;;5071235;28;19962;-71
2022/08/17 09:29:25;;;;;;;;;;;947.20;1203.20;;;;;;5071172;28;19939;-59
2022/08/17 09:31:56;;;;;;;;;;;922.50;1203.20;;;;;;5071106;28;20070;-73
2022/08/17 09:34:37;;;;;;;;;;;921.70;1228.80;;;;;;5071195;28;20363;-71
2022/08/17 09:37:25;;;;;;;;;;;921.70;1254.40;;;;;;5071433;28;19909;-71
2022/08/17 09:40:00;;;;;;;;;;;921.80;1228.80;;;;;;5062792;28;19971;-70
2022/08/17 09:42:30;;;;;;;;;;;921.70;1254.40;;;;;;5070930;28;19908;-71
2022/08/17 09:45:15;;;;;;;;;;;896.90;1228.80;;;;;;5070912;28;19909;-57
2022/08/17 09:47:50;;;;;;;;;;;896.50;1228.80;;;;;;5070544;28;20374;-71
2022/08/17 09:50:20;;;;;;;;;;;896.10;1280.00;;;;;;5070838;28;19952;-66
2022/08/17 09:52:46;;;;;;;;;;;896.30;1280.00;;;;;;5071151;28;19915;-57
2022/08/17 09:55:12;;;;;;;;;;;896.10;1254.40;;;;;;5071147;28;19954;-56
2022/08/17 09:57:57;;;;;;;;;;;871.30;1280.00;;;;;;5070899;28;20286;-72
2022/08/17 10:00:26;;;;;;;;;;;896.00;1280.00;;;;;;5070957;28;20282;-70
2022/08/17 10:03:10;;;;;;;;;;;871.30;1280.00;;;;;;5070832;28;19920;-70
2022/08/17 10:05:45;;;;;;;;;;;871.00;1305.60;;;;;;5070567;28;19912;-71
2022/08/17 10:08:21;;;;;;;;;;;870.90;1305.60;;;;;;5070921;28;20328;-65
2022/08/17 10:10:47;;;;;;;;;;;870.90;1305.60;;;;;;5070660;28;19986;-56
2022/08/17 10:13:21;;;;;;;;;;;870.70;1331.20;;;;;;5070751;28;20309;-71
2022/08/17 10:15:56;;;;;;;;;;;845.70;1331.20;;;;;;5069546;28;20309;-57
2022/08/17 10:18:37;;;;;;;;;;;870.50;1331.20;;;;;;5070815;28;20355;-58
2022/08/17 10:26:37;;;;;;;;;;;870.90;1331.20;;;;;;5070565;28;19923;-62
2022/08/17 10:29:11;;;;;;;;;;;871.10;1305.60;;;;;;5070621;28;19955;-71
2022/08/17 10:31:36;;;;;;;;;;;871.10;1305.60;;;;;;5070274;28;19913;-62
2022/08/17 10:34:20;;;;;;;;;;;871.00;1305.60;;;;;;5070835;28;20384;-66
2022/08/17 10:36:53;;;;;;;;;;;870.90;1305.60;;;;;;5070422;28;19962;-57
2022/08/17 10:39:19;;;;;;;;;;;870.80;1305.60;;;;;;5070775;28;19966;-63
2022/08/17 10:41:49;;;;;;;;;;;870.70;1305.60;;;;;;5070444;28;20297;-57
2022/08/17 10:44:34;;;;;;;;;;;870.90;1305.60;;;;;;5070422;28;19916;-57
2022/08/17 10:47:06;;;;;;;;;;;870.70;1305.60;;;;;;5070432;28;19917;-57
2022/08/17 10:49:33;;;;;;;;;;;870.90;1305.60;;;;;;5070469;28;19909;-65
2022/08/17 10:52:00;;;;;;;;;;;870.90;1280.00;;;;;;5070394;28;19909;-57
2022/08/17 10:54:32;;;;;;;;;;;871.00;1280.00;;;;;;5070360;28;19909;-66
2022/08/17 10:56:57;;;;;;;;;;;870.90;1305.60;;;;;;5070355;28;20007;-70
2022/08/17 10:59:47;;;;;;;;;;;870.80;1305.60;;;;;;5070501;28;20404;-71
2022/08/17 11:02:18;;;;;;;;;;;870.70;1305.60;;;;;;5008469;28;20459;-70
2022/08/17 11:05:02;;;;;;;;;;;870.60;1331.20;;;;;;5008702;28;20068;-60
2022/08/17 11:07:46;;;;;;;;;;;870.60;1331.20;;;;;;5011230;28;19917;-61
2022/08/17 11:10:17;;;;;;;;;;;870.70;1305.60;;;;;;5012120;28;19913;-67
2022/08/17 11:12:46;;;;;;;;;;;870.80;1305.60;;;;;;5012042;28;19910;-71
2022/08/17 11:15:40;;;;;;;;;;;870.90;1305.60;;;;;;5011848;28;20005;-71
2022/08/17 11:18:18;;;;;;;;;;;870.70;1331.20;;;;;;4998959;28;19909;-58
2022/08/17 11:21:03;;;;;;;;;;;870.80;1331.20;;;;;;5011895;28;20560;-56
2022/08/17 11:23:28;;;;;;;;;;;870.80;1331.20;;;;;;5011602;28;20379;-74
2022/08/17 11:25:55;;;;;;;;;;;870.70;1280.00;;;;;;5011671;28;20035;-70
2022/08/17 11:28:22;;;;;;;;;;;870.70;1305.60;;;;;;5011692;28;19959;-62
2022/08/17 11:30:50;;;;;;;;;;;845.70;1305.60;;;;;;5011206;28;19921;-71
2022/08/17 11:33:27;;;;;;;;;;;870.50;1305.60;;;;;;5011419;28;20427;-64
2022/08/17 11:36:02;;;;;;;;;;;870.50;1305.60;;;;;;5011690;28;19917;-73
2022/08/17 11:38:48;;;;;;;;;;;870.40;1280.00;;;;;;5023822;28;19916;-56
2022/08/17 11:41:29;;;;;;;;;;;845.70;1305.60;;;;;;5072857;28;19913;-72
2022/08/17 11:44:01;;;;;;;;;;;845.40;1305.60;;;;;;5073047;28;19912;-57
2022/08/17 11:52:37;;;;;;;;;;;845.40;1305.60;;;;;;5073028;28;19932;-70
2022/08/17 11:55:04;;;;;;;;;;;845.60;1305.60;;;;;;5073094;28;20308;-70
2022/08/17 11:57:29;;;;;;;;;;;870.50;1331.20;;;;;;5073213;28;19915;-70
2022/08/17 11:59:59;;;;;;;;;;;870.70;1305.60;;;;;;5071207;28;19909;-71
2022/08/17 12:02:31;;;;;;;;;;;870.50;1280.00;;;;;;5072573;28;20015;-59
2022/08/17 12:05:21;;;;;;;;;;;870.50;1254.40;;;;;;5072721;28;20011;-69
2022/08/17 12:08:05;;;;;;;;;;;870.60;1254.40;;;;;;5072544;28;19952;-70
2022/08/17 12:10:33;;;;;;;;;;;870.60;1280.00;;;;;;5072821;28;19966;-57
2022/08/17 12:13:01;;;;;;;;;;;870.60;1254.40;;;;;;5072399;28;20003;-70
2022/08/17 12:15:29;;;;;;;;;;;870.60;1254.40;;;;;;5072419;28;19963;-66
2022/08/17 12:17:55;;;;;;;;;;;870.50;1228.80;;;;;;5071659;28;20126;-57
2022/08/17 12:20:28;;;;;;;;;;;870.40;1177.60;;;;;;5072491;28;20003;-71
2022/08/17 12:23:02;;;;;;;;;;;870.60;1228.80;;;;;;5072583;28;19916;-70
2022/08/17 12:25:31;;;;;;;;;;;870.70;1228.80;;;;;;5072029;28;20377;-71
2022/08/17 12:27:57;;;;;;;;;;;870.50;1228.80;;;;;;5072162;28;20273;-64
2022/08/17 12:30:23;;;;;;;;;;;870.50;1254.40;;;;;;5072046;28;20013;-71
2022/08/17 12:32:49;;;;;;;;;;;870.70;1280.00;;;;;;5072353;28;19913;-63
2022/08/17 12:35:28;;;;;;;;;;;870.80;1305.60;;;;;;5072088;28;19908;-66
2022/08/17 12:37:56;;;;;;;;;;;870.90;1254.40;;;;;;5072425;28;20355;-70
2022/08/17 12:40:25;;;;;;;;;;;870.90;1254.40;;;;;;5072272;28;19916;-58
2022/08/17 12:42:56;;;;;;;;;;;870.80;1254.40;;;;;;5072008;28;19958;-70
2022/08/17 12:45:28;;;;;;;;;;;870.80;1254.40;;;;;;5071855;28;19913;-57
2022/08/17 12:48:20;;;;;;;;;;;870.90;1228.80;;;;;;5072185;28;19919;-64
2022/08/17 12:50:46;;;;;;;;;;;870.90;1228.80;;;;;;5071828;28;19969;-60
2022/08/17 12:53:13;;;;;;;;;;;870.90;1203.20;;;;;;5072010;28;19912;-60
2022/08/17 12:55:39;;;;;;;;;;;870.90;1228.80;;;;;;5071827;28;19908;-57
2022/08/17 12:58:05;;;;;;;;;;;870.90;1228.80;;;;;;5072045;28;20729;-58
2022/08/17 13:00:32;;;;;;;;;;;870.90;1203.20;;;;;;5071529;28;19917;-71
2022/08/17 13:02:57;;;;;;;;;;;870.90;1203.20;;;;;;5068847;28;19916;-59
2022/08/17 13:05:26;;;;;;;;;;;870.90;1203.20;;;;;;5069587;28;19920;-66
2022/08/17 13:07:53;;;;;;;;;;;870.90;1203.20;;;;;;5069561;28;19943;-63
2022/08/17 13:10:20;;;;;;;;;;;870.60;1203.20;;;;;;5069254;28;20271;-73
2022/08/17 13:12:46;;;;;;;;;;;870.70;1203.20;;;;;;5069485;28;20501;-68
2022/08/17 13:15:24;;;;;;;;;;;870.70;1228.80;;;;;;5069252;28;19908;-67
2022/08/17 13:17:57;;;;;;;;;;;870.80;1228.80;;;;;;5068477;28;19917;-57
2022/08/17 13:20:22;;;;;;;;;;;870.80;1228.80;;;;;;5068497;28;19995;-71
2022/08/17 13:22:52;;;;;;;;;;;870.80;1203.20;;;;;;5067677;28;19950;-63
2022/08/17 13:25:17;;;;;;;;;;;870.90;1228.80;;;;;;5065714;28;20019;-61
2022/08/17 13:27:51;;;;;;;;;;;870.90;1203.20;;;;;;5066593;28;20011;-66
2022/08/17 13:30:22;;;;;;;;;;;870.90;1203.20;;;;;;5066122;28;19917;-57
2022/08/17 13:32:48;;;;;;;;;;;870.80;1177.60;;;;;;5065032;28;19960;-65
2022/08/17 13:35:26;;;;;;;;;;;870.90;1254.40;;;;;;5066543;28;20000;-59
2022/08/17 13:38:05;;;;;;;;;;;870.90;1228.80;;;;;;5066084;28;19915;-60
2022/08/17 13:40:40;;;;;;;;;;;870.90;1228.80;;;;;;5066467;28;19924;-66
2022/08/17 13:43:06;;;;;;;;;;;870.90;1203.20;;;;;;5066444;28;19944;-58
2022/08/17 13:45:42;;;;;;;;;;;870.80;1177.60;;;;;;5066507;28;19908;-69
2022/08/17 13:48:08;;;;;;;;;;;870.80;1177.60;;;;;;5064524;28;19909;-62
2022/08/17 13:50:44;;;;;;;;;;;870.70;1177.60;;;;;;5066372;28;19916;-58
2022/08/17 13:53:18;;;;;;;;;;;870.70;1177.60;;;;;;5066421;28;19908;-70
2022/08/17 13:55:50;;;;;;;;;;;870.70;1177.60;;;;;;5063908;28;19916;-72
2022/08/17 13:58:21;;;;;;;;;;;870.70;1177.60;;;;;;5066284;28;19959;-57
2022/08/17 14:00:47;;;;;;;;;;;870.70;1177.60;;;;;;5065158;28;19916;-72
2022/08/17 14:03:14;;;;;;;;;;;870.60;1203.20;;;;;;5066718;28;19916;-58
2022/08/17 14:05:39;;;;;;;;;;;870.70;1203.20;;;;;;5066060;28;19928;-64
2022/08/17 14:08:05;;;;;;;;;;;845.70;1203.20;;;;;;5066140;28;19924;-58
2022/08/17 14:10:30;;;;;;;;;;;845.70;1228.80;;;;;;5066446;28;19912;-62
2022/08/17 14:12:56;;;;;;;;;;;870.40;1228.80;;;;;;5063834;28;20591;-70
2022/08/17 14:15:23;;;;;;;;;;;870.40;1228.80;;;;;;5065940;28;20366;-59
2022/08/17 14:17:49;;;;;;;;;;;870.40;1228.80;;;;;;5065881;28;19935;-57
2022/08/17 14:20:16;;;;;;;;;;;870.50;1203.20;;;;;;5065914;28;20370;-69
2022/08/17 14:22:48;;;;;;;;;;;870.50;1203.20;;;;;;5066211;28;19916;-63
2022/08/17 14:25:19;;;;;;;;;;;870.50;1228.80;;;;;;5066210;28;19920;-70